Time;durP1;ratioP1;P1;durP2;ratioP2;P2;SDS_P1;SDS_P2;PMS_P1;PMS_P2;Temp;Humidity;BMP_temperature;BMP_pressure;BME280_temperature;BME280_humidity;BME280_pressure;Samples;Min_cycle;Max_cycle;Signal;HPM_P1;HPM_P2
2021/05/17 00:01:05;;;;;;;13.60;8.48;;;;;;;;;;4995570;28;20026;-72
2021/05/17 00:03:31;;;;;;;13.88;8.35;;;;;;;;;;4995357;28;20022;-72
2021/05/17 00:05:57;;;;;;;9.27;8.18;;;;;;;;;;4994589;28;20045;-72
2021/05/17 00:08:23;;;;;;;10.25;8.45;;;;;;;;;;4994674;28;20026;-72
2021/05/17 00:10:49;;;;;;;13.32;8.88;;;;;;;;;;4994346;28;20394;-72
2021/05/17 00:13:15;;;;;;;10.07;8.65;;;;;;;;;;4994511;28;20054;-72
2021/05/17 00:15:42;;;;;;;10.07;8.43;;;;;;;;;;4994633;28;20036;-72
2021/05/17 00:18:08;;;;;;;9.82;8.35;;;;;;;;;;4994642;28;20033;-72
2021/05/17 00:20:34;;;;;;;9.98;8.93;;;;;;;;;;4994588;28;20027;-73
2021/05/17 00:23:00;;;;;;;9.07;8.18;;;;;;;;;;4994203;28;20026;-72
2021/05/17 00:25:27;;;;;;;9.27;8.38;;;;;;;;;;4994607;28;20030;-72
2021/05/17 00:27:55;;;;;;;9.52;8.05;;;;;;;;;;4994326;28;20109;-72
2021/05/17 00:30:22;;;;;;;9.30;7.63;;;;;;;;;;4994936;28;20026;-72
2021/05/17 00:32:48;;;;;;;8.98;8.13;;;;;;;;;;4994389;28;20378;-72
2021/05/17 00:35:14;;;;;;;9.43;8.35;;;;;;;;;;4994584;28;20034;-72
2021/05/17 00:37:41;;;;;;;9.73;8.77;;;;;;;;;;4994045;28;20027;-72
2021/05/17 00:40:07;;;;;;;10.30;8.65;;;;;;;;;;4993934;28;20033;-72
2021/05/17 00:42:34;;;;;;;9.30;8.07;;;;;;;;;;4994318;28;20132;-72
2021/05/17 00:45:00;;;;;;;9.57;8.65;;;;;;;;;;4994322;28;20494;-72
2021/05/17 00:47:26;;;;;;;11.93;8.73;;;;;;;;;;4994309;28;20082;-72
2021/05/17 00:49:52;;;;;;;8.40;7.60;;;;;;;;;;4993998;28;20019;-73
2021/05/17 00:52:19;;;;;;;11.05;8.27;;;;;;;;;;4993978;28;20114;-72
2021/05/17 00:54:45;;;;;;;8.27;7.22;;;;;;;;;;4994239;28;20121;-72
2021/05/17 00:57:12;;;;;;;8.85;7.88;;;;;;;;;;4994082;28;20025;-72
2021/05/17 00:59:38;;;;;;;8.32;7.20;;;;;;;;;;4994146;28;20454;-72
2021/05/17 01:02:04;;;;;;;9.35;7.88;;;;;;;;;;4993667;28;20033;-71
2021/05/17 01:04:30;;;;;;;8.43;7.65;;;;;;;;;;4993987;28;20027;-72
2021/05/17 01:06:56;;;;;;;9.23;7.35;;;;;;;;;;4993721;28;20050;-72
2021/05/17 01:09:22;;;;;;;7.93;7.13;;;;;;;;;;4993962;28;20026;-71
2021/05/17 01:11:49;;;;;;;8.98;7.22;;;;;;;;;;4994193;28;20105;-71
2021/05/17 01:14:15;;;;;;;7.68;6.75;;;;;;;;;;4994126;28;20473;-71
2021/05/17 01:16:41;;;;;;;7.40;6.50;;;;;;;;;;4993994;28;20034;-71
2021/05/17 01:19:10;;;;;;;8.75;6.88;;;;;;;;;;4994102;28;20101;-71
2021/05/17 01:21:37;;;;;;;7.65;6.28;;;;;;;;;;4994614;28;20041;-71
2021/05/17 01:24:04;;;;;;;7.03;6.15;;;;;;;;;;4997708;28;20033;-72
2021/05/17 01:26:30;;;;;;;7.93;6.80;;;;;;;;;;4997898;28;20039;-71
2021/05/17 01:28:57;;;;;;;7.88;7.07;;;;;;;;;;4997942;28;20109;-71
2021/05/17 01:31:23;;;;;;;8.05;6.22;;;;;;;;;;4998109;28;20033;-71
2021/05/17 01:33:50;;;;;;;8.85;6.90;;;;;;;;;;4997544;28;20023;-73
2021/05/17 01:36:16;;;;;;;7.88;6.82;;;;;;;;;;4997264;28;20380;-71
2021/05/17 01:38:43;;;;;;;7.68;6.63;;;;;;;;;;4997821;28;20050;-71
2021/05/17 01:41:10;;;;;;;8.02;6.13;;;;;;;;;;4997860;28;20030;-71
2021/05/17 01:43:54;;;;;;;7.22;6.47;;;;;;;;;;4997732;28;20026;-72
2021/05/17 01:46:21;;;;;;;7.25;6.50;;;;;;;;;;4997455;28;20030;-71
2021/05/17 01:48:47;;;;;;;7.43;6.32;;;;;;;;;;4997159;28;20042;-72
2021/05/17 01:51:14;;;;;;;6.80;6.13;;;;;;;;;;4997818;28;20423;-71
2021/05/17 01:53:41;;;;;;;7.38;5.95;;;;;;;;;;4997246;28;20157;-71
2021/05/17 01:56:07;;;;;;;6.60;5.85;;;;;;;;;;4997220;28;20035;-71
2021/05/17 01:58:36;;;;;;;10.57;6.50;;;;;;;;;;4997295;28;20057;-71
2021/05/17 02:01:02;;;;;;;9.38;6.28;;;;;;;;;;4997146;28;20539;-72
2021/05/17 02:03:28;;;;;;;6.78;6.07;;;;;;;;;;4997098;28;20023;-71
2021/05/17 02:05:54;;;;;;;7.53;6.47;;;;;;;;;;4996949;28;20077;-72
2021/05/17 02:08:20;;;;;;;9.00;5.63;;;;;;;;;;4997784;28;20026;-71
2021/05/17 02:10:46;;;;;;;7.05;6.07;;;;;;;;;;4997158;28;20026;-71
2021/05/17 02:13:14;;;;;;;6.60;5.95;;;;;;;;;;4996859;28;20085;-72
2021/05/17 02:15:40;;;;;;;8.32;6.38;;;;;;;;;;4997107;28;20092;-73
2021/05/17 02:18:07;;;;;;;6.55;5.95;;;;;;;;;;4996820;28;20037;-72
2021/05/17 02:20:34;;;;;;;6.90;6.25;;;;;;;;;;4997567;28;20101;-71
2021/05/17 02:23:01;;;;;;;10.57;6.25;;;;;;;;;;4996892;28;20030;-71
2021/05/17 02:25:27;;;;;;;6.57;5.70;;;;;;;;;;4996683;28;20030;-72
2021/05/17 02:27:53;;;;;;;8.40;6.40;;;;;;;;;;4996456;28;20034;-72
2021/05/17 02:30:20;;;;;;;6.80;6.10;;;;;;;;;;4996428;28;20030;-72
2021/05/17 02:32:46;;;;;;;5.93;5.32;;;;;;;;;;4996582;28;20543;-72
2021/05/17 02:35:12;;;;;;;7.38;6.00;;;;;;;;;;4997157;28;20027;-71
2021/05/17 02:37:39;;;;;;;7.60;6.28;;;;;;;;;;4996676;28;20026;-72
2021/05/17 02:40:05;;;;;;;6.65;5.90;;;;;;;;;;4996346;28;20030;-72
2021/05/17 02:42:31;;;;;;;6.53;5.93;;;;;;;;;;4996424;28;20038;-71
2021/05/17 02:44:58;;;;;;;7.93;6.18;;;;;;;;;;4996456;28;20022;-72
2021/05/17 02:47:24;;;;;;;6.05;5.45;;;;;;;;;;4996369;28;20043;-71
2021/05/17 02:49:51;;;;;;;8.15;5.38;;;;;;;;;;4996319;28;20097;-71
2021/05/17 02:52:18;;;;;;;6.50;5.85;;;;;;;;;;4996397;28;20061;-71
2021/05/17 02:54:44;;;;;;;7.45;5.80;;;;;;;;;;4996686;28;20073;-71
2021/05/17 02:57:12;;;;;;;6.70;6.00;;;;;;;;;;4996170;28;20018;-71
2021/05/17 02:59:46;;;;;;;6.45;5.18;;;;;;;;;;4996142;28;20087;-72
2021/05/17 03:02:12;;;;;;;6.97;6.05;;;;;;;;;;4995873;28;20089;-71
2021/05/17 03:04:40;;;;;;;5.53;5.03;;;;;;;;;;4996022;28;20023;-71
2021/05/17 03:07:07;;;;;;;5.88;5.28;;;;;;;;;;4995938;28;20092;-71
2021/05/17 03:09:34;;;;;;;5.75;4.85;;;;;;;;;;4996112;28;20099;-71
2021/05/17 03:12:00;;;;;;;6.13;5.53;;;;;;;;;;4995853;28;20057;-71
2021/05/17 03:14:28;;;;;;;8.00;6.28;;;;;;;;;;4996124;28;20078;-72
2021/05/17 03:16:54;;;;;;;6.03;5.25;;;;;;;;;;4996196;28;20029;-71
2021/05/17 03:19:21;;;;;;;34.20;20.25;;;;;;;;;;4995783;28;20033;-71
2021/05/17 03:21:47;;;;;;;25.90;16.25;;;;;;;;;;4995930;28;20483;-71
2021/05/17 03:24:13;;;;;;;21.95;14.88;;;;;;;;;;4995336;28;20551;-71
2021/05/17 03:26:39;;;;;;;19.73;13.93;;;;;;;;;;4995635;28;20034;-71
2021/05/17 03:29:06;;;;;;;28.85;16.63;;;;;;;;;;4995512;28;20031;-73
2021/05/17 03:31:32;;;;;;;21.23;13.80;;;;;;;;;;4995818;28;20616;-71
2021/05/17 03:33:58;;;;;;;21.67;14.00;;;;;;;;;;4995332;28;20045;-72
2021/05/17 03:36:24;;;;;;;23.83;13.98;;;;;;;;;;4995522;28;20084;-71
2021/05/17 03:38:50;;;;;;;19.23;13.23;;;;;;;;;;4995086;28;20368;-71
2021/05/17 03:41:16;;;;;;;22.25;14.02;;;;;;;;;;4995416;28;20472;-71
2021/05/17 03:43:42;;;;;;;24.05;13.15;;;;;;;;;;4994903;28;20378;-71
2021/05/17 03:46:08;;;;;;;24.02;13.48;;;;;;;;;;4993554;28;20034;-71
2021/05/17 03:48:41;;;;;;;22.38;13.70;;;;;;;;;;4995653;28;20022;-71
2021/05/17 03:51:07;;;;;;;23.27;14.20;;;;;;;;;;4995379;28;20030;-71
2021/05/17 03:53:34;;;;;;;20.02;12.73;;;;;;;;;;4995048;28;20427;-71
2021/05/17 03:56:00;;;;;;;17.08;12.20;;;;;;;;;;4994932;28;20030;-72
2021/05/17 03:58:26;;;;;;;24.10;13.25;;;;;;;;;;4995038;28;20076;-71
2021/05/17 04:00:52;;;;;;;19.38;13.45;;;;;;;;;;4995541;28;20469;-71
2021/05/17 04:03:20;;;;;;;21.17;13.30;;;;;;;;;;4995308;28;20034;-71
2021/05/17 04:06:00;;;;;;;22.50;12.63;;;;;;;;;;4994680;28;20515;-71
2021/05/17 04:13:58;;;;;;;17.50;11.93;;;;;;;;;;4979994;28;20180;-71
2021/05/17 04:16:24;;;;;;;15.95;11.88;;;;;;;;;;4995028;28;20030;-71
2021/05/17 04:18:51;;;;;;;18.95;10.90;;;;;;;;;;4994649;28;20038;-72
2021/05/17 04:21:17;;;;;;;16.63;12.50;;;;;;;;;;4994348;28;20033;-72
2021/05/17 04:23:43;;;;;;;19.05;12.70;;;;;;;;;;4994673;28;20027;-72
2021/05/17 04:26:09;;;;;;;19.20;10.82;;;;;;;;;;4994337;28;20429;-71
2021/05/17 04:28:36;;;;;;;17.85;10.82;;;;;;;;;;4993344;28;20380;-71
2021/05/17 04:31:02;;;;;;;20.33;10.80;;;;;;;;;;4994431;28;20468;-71
2021/05/17 04:33:28;;;;;;;16.33;11.07;;;;;;;;;;4994256;28;20026;-71
2021/05/17 04:35:54;;;;;;;14.20;9.13;;;;;;;;;;4994226;28;20119;-71
2021/05/17 04:38:20;;;;;;;18.13;9.65;;;;;;;;;;4994736;28;20031;-71
2021/05/17 04:40:47;;;;;;;17.98;11.27;;;;;;;;;;4993781;28;20073;-71
2021/05/17 04:43:13;;;;;;;19.25;11.00;;;;;;;;;;4993858;28;20088;-71
2021/05/17 04:45:39;;;;;;;15.13;10.65;;;;;;;;;;4993948;28;20033;-72
2021/05/17 04:48:06;;;;;;;17.65;11.45;;;;;;;;;;4993234;28;20612;-71
2021/05/17 04:50:32;;;;;;;15.75;11.13;;;;;;;;;;4993643;28;20034;-71
2021/05/17 04:52:58;;;;;;;18.70;11.95;;;;;;;;;;4994056;28;20499;-71
2021/05/17 04:55:24;;;;;;;20.08;11.63;;;;;;;;;;4994090;28;20034;-71
2021/05/17 04:57:50;;;;;;;16.02;11.30;;;;;;;;;;4993270;28;20018;-70
2021/05/17 05:00:16;;;;;;;21.55;9.57;;;;;;;;;;4993364;28;20473;-72
2021/05/17 05:02:42;;;;;;;27.15;12.52;;;;;;;;;;4994306;28;20072;-70
2021/05/17 05:05:09;;;;;;;19.15;10.80;;;;;;;;;;4993441;28;20105;-71
2021/05/17 05:07:35;;;;;;;20.30;11.27;;;;;;;;;;4993863;28;20387;-72
2021/05/17 05:10:01;;;;;;;17.65;10.55;;;;;;;;;;4993594;28;20024;-71
2021/05/17 05:12:27;;;;;;;26.42;11.68;;;;;;;;;;4993623;28;20113;-72
2021/05/17 05:14:53;;;;;;;14.88;8.60;;;;;;;;;;4993818;28;20022;-72
2021/05/17 05:17:19;;;;;;;22.85;10.23;;;;;;;;;;4993722;28;20026;-72
2021/05/17 05:19:45;;;;;;;26.95;10.13;;;;;;;;;;4993662;28;20465;-71
2021/05/17 05:22:11;;;;;;;21.23;9.98;;;;;;;;;;4993570;28;20113;-72
2021/05/17 05:24:39;;;;;;;21.25;8.80;;;;;;;;;;4993024;28;20029;-72
2021/05/17 05:27:12;;;;;;;25.52;9.07;;;;;;;;;;4994114;28;20496;-71
2021/05/17 05:29:50;;;;;;;24.92;8.60;;;;;;;;;;4994112;28;20037;-71
2021/05/17 05:32:26;;;;;;;16.15;9.23;;;;;;;;;;4993386;28;20028;-72
2021/05/17 05:34:52;;;;;;;17.77;8.50;;;;;;;;;;4993884;28;20029;-71
2021/05/17 05:37:18;;;;;;;10.57;7.45;;;;;;;;;;4993663;28;20384;-72
2021/05/17 05:39:44;;;;;;;13.48;8.00;;;;;;;;;;4993746;28;20483;-71
2021/05/17 05:42:10;;;;;;;18.00;7.90;;;;;;;;;;4993154;28;20030;-71
2021/05/17 05:44:45;;;;;;;18.05;7.95;;;;;;;;;;4993693;28;20031;-71
2021/05/17 05:47:14;;;;;;;12.25;7.47;;;;;;;;;;4993749;28;20046;-70
2021/05/17 05:49:41;;;;;;;8.80;6.88;;;;;;;;;;4993819;28;20353;-70
2021/05/17 05:52:07;;;;;;;16.90;7.30;;;;;;;;;;4993446;28;20033;-70
2021/05/17 05:54:33;;;;;;;6.80;6.13;;;;;;;;;;4993787;28;20027;-70
2021/05/17 05:56:59;;;;;;;10.70;6.50;;;;;;;;;;4993586;28;20113;-70
2021/05/17 05:59:25;;;;;;;9.07;5.78;;;;;;;;;;4993505;28;20491;-70
2021/05/17 06:01:52;;;;;;;10.57;6.47;;;;;;;;;;4993603;28;20023;-72
2021/05/17 06:04:18;;;;;;;14.38;5.90;;;;;;;;;;4994062;28;20031;-70
2021/05/17 06:06:44;;;;;;;8.15;5.97;;;;;;;;;;4993267;28;20039;-70
2021/05/17 06:09:11;;;;;;;7.22;6.03;;;;;;;;;;4996637;28;20038;-70
2021/05/17 06:11:37;;;;;;;8.98;5.95;;;;;;;;;;4997387;28;20030;-70
2021/05/17 06:14:03;;;;;;;12.77;6.95;;;;;;;;;;4996316;28;20054;-71
2021/05/17 06:16:31;;;;;;;7.93;5.80;;;;;;;;;;4996741;28;20527;-70
2021/05/17 06:18:58;;;;;;;11.07;6.95;;;;;;;;;;4996914;28;20081;-70
2021/05/17 06:21:24;;;;;;;9.13;5.72;;;;;;;;;;4997100;28;20564;-70
2021/05/17 06:23:50;;;;;;;7.65;5.90;;;;;;;;;;4997108;28;20361;-69
2021/05/17 06:26:16;;;;;;;7.55;6.75;;;;;;;;;;4996310;28;20503;-69
2021/05/17 06:28:42;;;;;;;7.45;6.57;;;;;;;;;;4996556;28;20034;-70
2021/05/17 06:31:11;;;;;;;7.72;5.65;;;;;;;;;;4996658;28;20029;-71
2021/05/17 06:33:37;;;;;;;7.13;6.43;;;;;;;;;;4996776;28;20054;-71
2021/05/17 06:36:03;;;;;;;7.90;6.35;;;;;;;;;;4996374;28;20069;-70
2021/05/17 06:38:30;;;;;;;6.50;5.13;;;;;;;;;;4996663;28;20026;-69
2021/05/17 06:40:56;;;;;;;9.40;5.57;;;;;;;;;;4993551;28;20068;-71
2021/05/17 06:43:23;;;;;;;7.80;5.85;;;;;;;;;;4994928;28;20357;-72
2021/05/17 06:45:49;;;;;;;6.03;5.03;;;;;;;;;;4993941;28;20031;-75
2021/05/17 06:48:15;;;;;;;8.43;4.55;;;;;;;;;;4995158;28;20030;-72
2021/05/17 06:50:41;;;;;;;5.78;4.97;;;;;;;;;;4995809;28;20033;-76
2021/05/17 06:53:07;;;;;;;13.57;5.40;;;;;;;;;;4995676;28;20505;-74
2021/05/17 06:55:43;;;;;;;11.40;5.18;;;;;;;;;;4995508;28;20026;-73
2021/05/17 06:58:14;;;;;;;27.90;6.13;;;;;;;;;;4995180;28;20027;-72
2021/05/17 07:00:40;;;;;;;10.50;5.53;;;;;;;;;;4996256;28;20026;-71
2021/05/17 07:03:07;;;;;;;6.22;4.72;;;;;;;;;;4995672;28;20034;-71
2021/05/17 07:05:33;;;;;;;6.47;5.45;;;;;;;;;;4994432;28;20030;-70
2021/05/17 07:13:31;;;;;;;6.15;5.55;;;;;;;;;;4980443;28;20050;-72
2021/05/17 07:15:58;;;;;;;7.72;5.72;;;;;;;;;;4994285;28;20027;-72
2021/05/17 07:18:24;;;;;;;11.93;5.03;;;;;;;;;;4995512;28;20077;-73
2021/05/17 07:23:39;;;;;;;7.60;4.85;;;;;;;;;;4981099;28;20065;-71
2021/05/17 07:26:07;;;;;;;10.65;4.88;;;;;;;;;;4995284;28;20182;-71
2021/05/17 07:28:33;;;;;;;7.07;4.53;;;;;;;;;;4995881;28;20076;-72
2021/05/17 07:31:02;;;;;;;7.40;6.03;;;;;;;;;;4995782;28;20023;-72
2021/05/17 07:33:29;;;;;;;7.07;4.95;;;;;;;;;;4995515;28;20353;-71
2021/05/17 07:35:55;;;;;;;6.47;4.60;;;;;;;;;;4995338;28;20026;-71
2021/05/17 07:38:23;;;;;;;7.60;4.90;;;;;;;;;;4995648;28;20022;-71
2021/05/17 07:40:50;;;;;;;11.48;5.22;;;;;;;;;;4995837;28;20026;-72
2021/05/17 07:43:16;;;;;;;5.18;4.43;;;;;;;;;;4994169;28;20026;-71
2021/05/17 07:45:42;;;;;;;11.43;4.90;;;;;;;;;;4995399;28;20027;-71
2021/05/17 07:48:10;;;;;;;8.43;5.03;;;;;;;;;;4994185;28;20484;-72
2021/05/17 07:50:36;;;;;;;5.85;4.60;;;;;;;;;;4994433;28;20038;-72
2021/05/17 07:53:02;;;;;;;8.25;4.70;;;;;;;;;;4994853;28;20027;-71
2021/05/17 07:55:28;;;;;;;5.25;4.28;;;;;;;;;;4995299;28;20030;-71
2021/05/17 07:57:55;;;;;;;4.32;3.80;;;;;;;;;;4994737;28;20076;-72
2021/05/17 08:00:21;;;;;;;4.93;4.45;;;;;;;;;;4995081;28;20037;-71
2021/05/17 08:02:47;;;;;;;9.05;3.85;;;;;;;;;;5003763;28;20029;-73
2021/05/17 08:05:13;;;;;;;7.35;3.80;;;;;;;;;;5017405;28;20034;-72
2021/05/17 08:07:39;;;;;;;5.68;3.97;;;;;;;;;;5018069;28;20038;-70
2021/05/17 08:10:05;;;;;;;6.63;4.32;;;;;;;;;;5016001;28;20024;-70
2021/05/17 08:12:31;;;;;;;4.47;3.95;;;;;;;;;;5016388;28;20089;-71
2021/05/17 08:14:58;;;;;;;7.43;3.55;;;;;;;;;;5003870;28;20029;-73
2021/05/17 08:17:24;;;;;;;6.45;4.35;;;;;;;;;;4994927;28;20030;-74
2021/05/17 08:19:50;;;;;;;3.85;3.45;;;;;;;;;;4995698;28;20430;-69
2021/05/17 08:22:16;;;;;;;6.60;4.65;;;;;;;;;;4995185;28;20084;-70
2021/05/17 08:24:42;;;;;;;4.13;3.72;;;;;;;;;;4995172;28;20027;-74
2021/05/17 08:27:09;;;;;;;8.85;4.18;;;;;;;;;;4995738;28;20048;-72
2021/05/17 08:29:36;;;;;;;7.45;4.55;;;;;;;;;;5004996;28;20049;-71
2021/05/17 08:32:03;;;;;;;6.80;4.70;;;;;;;;;;5010768;28;20022;-72
2021/05/17 08:34:30;;;;;;;4.68;4.20;;;;;;;;;;5015448;28;20029;-71
2021/05/17 08:36:56;;;;;;;5.60;3.90;;;;;;;;;;5015553;28;20064;-72
2021/05/17 08:39:23;;;;;;;5.65;3.75;;;;;;;;;;5015467;28;20026;-71
2021/05/17 08:41:49;;;;;;;5.70;3.70;;;;;;;;;;5014915;28;20026;-71
2021/05/17 08:44:15;;;;;;;4.50;4.10;;;;;;;;;;5012462;28;20022;-69
2021/05/17 08:46:46;;;;;;;4.18;3.78;;;;;;;;;;5013261;28;20125;-70
2021/05/17 08:49:12;;;;;;;8.85;4.38;;;;;;;;;;5013840;28;20018;-70
2021/05/17 08:51:38;;;;;;;9.13;4.38;;;;;;;;;;5012566;28;20060;-69
2021/05/17 08:54:06;;;;;;;6.25;3.70;;;;;;;;;;5013916;28;20415;-73
2021/05/17 08:56:33;;;;;;;6.93;3.47;;;;;;;;;;5011925;28;20387;-72
2021/05/17 08:58:59;;;;;;;4.85;3.60;;;;;;;;;;5012668;28;20369;-71
2021/05/17 09:01:25;;;;;;;7.45;3.97;;;;;;;;;;5011955;28;20032;-70
2021/05/17 09:03:56;;;;;;;4.25;3.85;;;;;;;;;;5013146;28;20380;-70
2021/05/17 09:06:23;;;;;;;9.95;4.07;;;;;;;;;;5012137;28;20394;-70
2021/05/17 09:08:49;;;;;;;6.05;3.65;;;;;;;;;;5011741;28;20045;-71
2021/05/17 09:11:29;;;;;;;5.63;3.63;;;;;;;;;;5012203;28;20032;-70
2021/05/17 09:14:06;;;;;;;4.97;3.95;;;;;;;;;;5013119;28;20056;-70
2021/05/17 09:16:52;;;;;;;3.53;3.22;;;;;;;;;;5014369;28;20026;-71
2021/05/17 09:19:19;;;;;;;7.47;3.92;;;;;;;;;;4999575;28;20029;-72
2021/05/17 09:22:05;;;;;;;3.90;3.60;;;;;;;;;;5013512;28;20025;-71
2021/05/17 09:24:35;;;;;;;6.30;4.22;;;;;;;;;;4999003;28;20025;-71
2021/05/17 09:27:01;;;;;;;7.88;3.85;;;;;;;;;;5014031;28;20383;-71
2021/05/17 09:29:28;;;;;;;5.85;3.45;;;;;;;;;;5013190;28;20030;-71
2021/05/17 09:31:54;;;;;;;4.35;3.53;;;;;;;;;;5013732;28;20033;-71
2021/05/17 09:34:33;;;;;;;5.53;4.10;;;;;;;;;;5017345;28;20087;-71
2021/05/17 09:37:01;;;;;;;3.90;3.58;;;;;;;;;;5013376;28;20038;-71
2021/05/17 09:39:27;;;;;;;3.90;3.40;;;;;;;;;;5013499;28;20029;-69
2021/05/17 09:41:56;;;;;;;4.53;3.92;;;;;;;;;;5013344;28;20119;-70
2021/05/17 09:44:23;;;;;;;5.65;3.65;;;;;;;;;;5017111;28;20022;-70
2021/05/17 09:46:57;;;;;;;8.30;4.10;;;;;;;;;;5017166;28;20036;-70
2021/05/17 09:49:45;;;;;;;3.88;3.45;;;;;;;;;;5016989;28;20030;-70
2021/05/17 09:52:12;;;;;;;9.18;4.30;;;;;;;;;;5002617;28;20018;-70
2021/05/17 09:54:58;;;;;;;5.45;4.10;;;;;;;;;;5016842;28;20387;-70
2021/05/17 09:57:29;;;;;;;10.30;4.15;;;;;;;;;;5002463;28;20361;-70
2021/05/17 09:59:56;;;;;;;6.93;4.13;;;;;;;;;;5016458;28;20053;-71
2021/05/17 10:02:30;;;;;;;4.60;3.88;;;;;;;;;;5016905;28;20272;-70
2021/05/17 10:04:56;;;;;;;4.68;4.20;;;;;;;;;;5016764;28;20036;-70
2021/05/17 10:07:22;;;;;;;5.53;4.13;;;;;;;;;;5016662;28;20472;-70
2021/05/17 10:09:48;;;;;;;6.25;4.10;;;;;;;;;;5016739;28;20030;-69
2021/05/17 10:12:15;;;;;;;4.78;3.88;;;;;;;;;;5016102;28;20022;-71
2021/05/17 10:14:41;;;;;;;4.70;4.03;;;;;;;;;;5016744;28;20050;-72
2021/05/17 10:17:07;;;;;;;4.97;4.47;;;;;;;;;;5017064;28;20407;-72
2021/05/17 10:19:33;;;;;;;5.10;4.60;;;;;;;;;;5016727;28;20083;-71
2021/05/17 10:22:00;;;;;;;5.65;4.68;;;;;;;;;;5016583;28;20101;-71
2021/05/17 10:24:26;;;;;;;5.22;4.60;;;;;;;;;;5016746;28;20026;-72
2021/05/17 10:26:52;;;;;;;5.47;4.30;;;;;;;;;;5016237;28;20109;-71
2021/05/17 10:29:18;;;;;;;8.35;3.97;;;;;;;;;;5016079;28;20112;-70
2021/05/17 10:31:52;;;;;;;12.00;4.40;;;;;;;;;;5016006;28;20482;-74
2021/05/17 10:34:18;;;;;;;4.55;4.15;;;;;;;;;;5016592;28;20033;-73
2021/05/17 10:36:46;;;;;;;5.57;3.90;;;;;;;;;;5016180;28;20029;-73
2021/05/17 10:39:13;;;;;;;8.10;4.15;;;;;;;;;;5016556;28;20072;-73
2021/05/17 10:41:58;;;;;;;5.53;4.20;;;;;;;;;;5015840;28;20050;-73
2021/05/17 10:44:39;;;;;;;12.80;4.82;;;;;;;;;;5015990;28;20037;-73
2021/05/17 10:47:05;;;;;;;6.05;4.35;;;;;;;;;;5016127;28;20479;-73
2021/05/17 10:49:33;;;;;;;8.52;4.15;;;;;;;;;;5016068;28;20030;-73
2021/05/17 10:52:19;;;;;;;6.32;4.72;;;;;;;;;;5015624;28;20145;-73
2021/05/17 10:54:45;;;;;;;6.68;5.05;;;;;;;;;;5002085;28;20034;-71
2021/05/17 10:57:30;;;;;;;9.80;4.38;;;;;;;;;;5016482;28;20033;-72
2021/05/17 11:02:43;;;;;;;6.30;3.97;;;;;;;;;;5001119;28;20033;-73
2021/05/17 11:05:24;;;;;;;6.35;3.95;;;;;;;;;;5015811;28;20029;-73
2021/05/17 11:07:52;;;;;;;5.03;4.18;;;;;;;;;;5015779;28;20121;-73
2021/05/17 11:10:22;;;;;;;5.55;4.63;;;;;;;;;;5015849;28;20048;-72
2021/05/17 11:13:08;;;;;;;4.75;4.30;;;;;;;;;;5015523;28;20042;-71
2021/05/17 11:15:43;;;;;;;15.43;5.07;;;;;;;;;;5001337;28;20022;-73
2021/05/17 11:18:29;;;;;;;5.85;4.43;;;;;;;;;;5015384;28;20022;-72
2021/05/17 11:20:57;;;;;;;8.02;4.70;;;;;;;;;;5001126;28;20376;-73
2021/05/17 11:23:43;;;;;;;7.30;4.97;;;;;;;;;;5014498;28;20380;-74
2021/05/17 11:26:11;;;;;;;7.43;5.43;;;;;;;;;;4981034;28;20084;-71
2021/05/17 11:28:57;;;;;;;6.57;4.65;;;;;;;;;;4995223;28;20026;-71
2021/05/17 11:31:38;;;;;;;4.53;4.13;;;;;;;;;;4981285;28;20022;-72
2021/05/17 11:34:06;;;;;;;5.10;4.28;;;;;;;;;;4994290;28;20026;-73
2021/05/17 11:36:33;;;;;;;7.43;4.05;;;;;;;;;;4995864;28;20030;-74
2021/05/17 11:39:17;;;;;;;7.30;4.47;;;;;;;;;;4995577;28;20426;-74
2021/05/17 11:41:49;;;;;;;5.22;4.70;;;;;;;;;;4995893;28;20081;-73
2021/05/17 11:44:17;;;;;;;4.18;3.78;;;;;;;;;;4993452;28;20033;-73
2021/05/17 11:46:46;;;;;;;4.45;4.05;;;;;;;;;;4994954;28;20046;-72
2021/05/17 11:49:13;;;;;;;4.95;4.00;;;;;;;;;;4995108;28;20032;-72
2021/05/17 11:51:39;;;;;;;8.48;4.55;;;;;;;;;;4995446;28;20022;-74
2021/05/17 11:54:06;;;;;;;6.10;3.88;;;;;;;;;;4993835;28;20026;-73
2021/05/17 11:56:33;;;;;;;5.72;3.88;;;;;;;;;;4995324;28;20476;-73
2021/05/17 11:59:03;;;;;;;4.10;3.55;;;;;;;;;;4995307;28;20030;-73
2021/05/17 12:01:29;;;;;;;4.20;3.38;;;;;;;;;;4995632;28;20476;-71
2021/05/17 12:03:55;;;;;;;9.43;4.00;;;;;;;;;;4993195;28;20031;-73
2021/05/17 12:06:21;;;;;;;7.53;3.47;;;;;;;;;;4994323;28;20027;-73
2021/05/17 12:08:47;;;;;;;4.15;3.75;;;;;;;;;;4995390;28;20037;-73
2021/05/17 12:11:14;;;;;;;4.97;3.70;;;;;;;;;;4995098;28;20026;-71
2021/05/17 12:13:47;;;;;;;4.97;3.72;;;;;;;;;;4993156;28;20472;-73
2021/05/17 12:16:28;;;;;;;8.93;4.55;;;;;;;;;;4994630;28;20184;-72
2021/05/17 12:18:58;;;;;;;5.32;4.60;;;;;;;;;;4994850;28;20376;-73
2021/05/17 12:21:24;;;;;;;5.07;3.80;;;;;;;;;;4995274;28;20026;-73
2021/05/17 12:23:50;;;;;;;4.28;3.60;;;;;;;;;;4992490;28;20057;-74
2021/05/17 12:26:16;;;;;;;5.30;3.97;;;;;;;;;;4994667;28;20033;-73
2021/05/17 12:28:43;;;;;;;5.13;4.10;;;;;;;;;;4993992;28;20453;-73
2021/05/17 12:31:09;;;;;;;3.70;3.40;;;;;;;;;;4994731;28;20029;-73
2021/05/17 12:33:42;;;;;;;4.35;3.95;;;;;;;;;;4992927;28;20049;-73
2021/05/17 12:36:08;;;;;;;3.95;3.65;;;;;;;;;;4994445;28;20096;-74
2021/05/17 12:38:35;;;;;;;3.95;3.55;;;;;;;;;;4994104;28;20018;-72
2021/05/17 12:41:02;;;;;;;5.53;3.47;;;;;;;;;;4994367;28;20023;-73
2021/05/17 12:43:35;;;;;;;4.00;3.60;;;;;;;;;;4994528;28;20026;-73
2021/05/17 12:46:01;;;;;;;5.78;4.80;;;;;;;;;;4994216;28;20037;-72
2021/05/17 12:48:39;;;;;;;7.60;4.82;;;;;;;;;;4994321;28;20113;-73
2021/05/17 12:51:25;;;;;;;8.80;4.10;;;;;;;;;;4992580;28;20054;-72
2021/05/17 12:53:52;;;;;;;4.00;3.70;;;;;;;;;;4959728;28;20037;-71
2021/05/17 12:56:35;;;;;;;5.35;4.30;;;;;;;;;;5002176;28;20034;-71
2021/05/17 12:59:03;;;;;;;4.68;3.90;;;;;;;;;;5014968;28;20472;-75
2021/05/17 13:01:29;;;;;;;5.78;3.95;;;;;;;;;;5017278;28;20030;-74
2021/05/17 13:03:56;;;;;;;6.68;4.35;;;;;;;;;;5016172;28;20025;-72
2021/05/17 13:06:23;;;;;;;4.88;3.85;;;;;;;;;;5016793;28;20034;-70
2021/05/17 13:09:07;;;;;;;9.25;4.57;;;;;;;;;;5013378;28;20075;-72
2021/05/17 13:11:35;;;;;;;4.55;3.70;;;;;;;;;;5013263;28;20062;-74
2021/05/17 13:14:05;;;;;;;4.07;3.47;;;;;;;;;;5012966;28;20057;-72
2021/05/17 13:16:55;;;;;;;8.60;4.47;;;;;;;;;;5013233;28;20032;-72
2021/05/17 13:30:56;;;;;;;35.92;14.48;;;;;;;;;;5002127;28;20033;-71
2021/05/17 13:33:23;;;;;;;30.95;14.10;;;;;;;;;;5016338;28;20061;-72
2021/05/17 13:35:51;;;;;;;41.35;15.32;;;;;;;;;;5016595;28;20372;-71
2021/05/17 13:38:17;;;;;;;37.97;13.85;;;;;;;;;;5017526;28;20033;-71
2021/05/17 13:40:43;;;;;;;20.58;9.10;;;;;;;;;;5016909;28;20367;-72
2021/05/17 13:43:09;;;;;;;24.88;10.43;;;;;;;;;;5016221;28;20147;-72
2021/05/17 13:45:35;;;;;;;58.63;20.30;;;;;;;;;;5016565;28;20029;-72
2021/05/17 13:48:01;;;;;;;34.92;11.27;;;;;;;;;;5016364;28;20034;-72
2021/05/17 13:50:27;;;;;;;29.45;12.98;;;;;;;;;;5016286;28;20037;-71
2021/05/17 13:52:53;;;;;;;33.00;14.60;;;;;;;;;;5016351;28;20030;-75
2021/05/17 13:55:20;;;;;;;33.22;14.48;;;;;;;;;;5016338;28;20037;-74
2021/05/17 13:57:50;;;;;;;32.55;11.43;;;;;;;;;;5016029;28;20375;-73
2021/05/17 14:00:17;;;;;;;31.00;12.27;;;;;;;;;;5015417;28;20029;-69
2021/05/17 14:02:43;;;;;;;32.55;10.98;;;;;;;;;;5016033;28;20253;-70
2021/05/17 14:05:09;;;;;;;26.02;10.00;;;;;;;;;;5016057;28;20034;-70
2021/05/17 14:07:35;;;;;;;27.17;10.07;;;;;;;;;;5016393;28;20046;-70
2021/05/17 14:10:02;;;;;;;25.65;9.60;;;;;;;;;;5015844;28;20026;-70
2021/05/17 14:12:28;;;;;;;25.77;10.00;;;;;;;;;;5016021;28;20026;-70
2021/05/17 14:14:54;;;;;;;23.60;8.77;;;;;;;;;;5016208;28;20030;-71
2021/05/17 14:17:20;;;;;;;22.98;9.63;;;;;;;;;;5016156;28;20076;-69
2021/05/17 14:19:46;;;;;;;13.88;8.40;;;;;;;;;;5015951;28;20037;-75
2021/05/17 14:22:12;;;;;;;13.35;8.18;;;;;;;;;;5015776;28;20618;-72
2021/05/17 14:24:39;;;;;;;12.43;7.57;;;;;;;;;;5016209;28;20152;-72
2021/05/17 14:27:07;;;;;;;16.38;7.60;;;;;;;;;;5015592;28;20033;-73
2021/05/17 14:29:33;;;;;;;11.75;7.30;;;;;;;;;;5014795;28;20061;-72
2021/05/17 14:31:59;;;;;;;13.02;6.88;;;;;;;;;;5015353;28;20041;-72
2021/05/17 14:34:25;;;;;;;12.60;6.60;;;;;;;;;;5016259;28;20026;-70
2021/05/17 14:36:51;;;;;;;15.45;7.20;;;;;;;;;;5016104;28;20061;-71
2021/05/17 14:39:17;;;;;;;13.23;7.43;;;;;;;;;;5015670;28;20026;-73
2021/05/17 14:41:43;;;;;;;13.48;6.57;;;;;;;;;;5016185;28;20034;-70
2021/05/17 14:44:10;;;;;;;12.43;6.15;;;;;;;;;;5015473;28;20033;-73
2021/05/17 14:46:36;;;;;;;12.18;5.68;;;;;;;;;;5015341;28;20060;-72
2021/05/17 14:49:02;;;;;;;9.05;5.85;;;;;;;;;;5015488;28;20037;-72
2021/05/17 14:51:28;;;;;;;9.77;6.10;;;;;;;;;;5015580;28;20054;-72
2021/05/17 14:53:55;;;;;;;7.10;4.88;;;;;;;;;;5014667;28;20538;-72
2021/05/17 14:56:21;;;;;;;9.32;5.90;;;;;;;;;;5015310;28;20061;-72
2021/05/17 14:58:47;;;;;;;16.85;5.07;;;;;;;;;;5015644;28;20026;-72
2021/05/17 15:01:13;;;;;;;11.13;4.93;;;;;;;;;;5016123;28;20117;-75
2021/05/17 15:03:39;;;;;;;5.82;5.22;;;;;;;;;;5015523;28;20033;-72
2021/05/17 15:06:06;;;;;;;5.63;5.03;;;;;;;;;;5014575;28;20018;-72
2021/05/17 15:08:32;;;;;;;7.25;5.30;;;;;;;;;;5015590;28;20037;-73